Time;durP1;ratioP1;P1;durP2;ratioP2;P2;SDS_P1;SDS_P2;PMS_P1;PMS_P2;Temp;Humidity;BMP_temperature;BMP_pressure;BME280_temperature;BME280_humidity;BME280_pressure;Samples;Min_cycle;Max_cycle;Signal;HPM_P1;HPM_P2
2022/12/06 00:01:25;;;;;;;4.60;3.87;;;;;;;2.49;90.69;95979.91;1716149;83;21011;-67
2022/12/06 00:03:55;;;;;;;9.40;4.50;;;;;;;2.49;91.08;95970.80;1715963;83;21022;-67
2022/12/06 00:06:26;;;;;;;6.97;3.73;;;;;;;2.48;91.03;95969.92;1716085;83;21549;-67
2022/12/06 00:08:54;;;;;;;11.33;5.93;;;;;;;2.43;90.70;95974.60;1716232;83;21492;-67
2022/12/06 00:11:27;;;;;;;11.63;6.80;;;;;;;2.40;90.68;95969.34;1716513;83;20987;-66
2022/12/06 00:13:58;;;;;;;25.02;12.15;;;;;;;2.42;90.97;95969.82;1716347;83;21019;-66
2022/12/06 00:16:25;;;;;;;10.63;5.57;;;;;;;2.42;91.79;95971.13;1716270;83;20998;-66
2022/12/06 00:18:52;;;;;;;20.27;9.17;;;;;;;2.41;91.44;95969.78;1715988;83;21629;-67
2022/12/06 00:21:23;;;;;;;15.73;8.00;;;;;;;2.43;91.51;95965.48;1715832;83;21012;-67
2022/12/06 00:23:59;;;;;;;15.50;8.10;;;;;;;2.47;91.76;95959.06;1716191;84;21031;-67
2022/12/06 00:26:26;;;;;;;12.43;7.63;;;;;;;2.50;91.76;95969.53;1716232;83;21007;-67
2022/12/06 00:28:59;;;;;;;9.20;6.30;;;;;;;2.58;92.27;95967.94;1716060;83;21520;-67
2022/12/06 00:31:28;;;;;;;9.88;5.80;;;;;;;2.68;92.61;95966.38;1716353;83;21062;-67
2022/12/06 00:33:56;;;;;;;8.47;5.07;;;;;;;2.69;91.86;95964.64;1716143;84;21516;-67
2022/12/06 00:36:30;;;;;;;9.70;5.57;;;;;;;2.65;91.30;95962.86;1716147;84;21014;-67
2022/12/06 00:38:59;;;;;;;13.60;5.80;;;;;;;2.60;90.92;95966.25;1716212;83;21014;-67
2022/12/06 00:41:27;;;;;;;10.87;4.67;;;;;;;2.57;91.05;95966.20;1716040;83;21050;-67
2022/12/06 00:43:54;;;;;;;7.13;4.67;;;;;;;2.58;91.18;95961.42;1715940;83;21038;-67
2022/12/06 00:46:24;;;;;;;7.00;3.10;;;;;;;2.59;91.20;95948.84;1716336;83;21058;-67
2022/12/06 00:48:53;;;;;;;11.67;6.33;;;;;;;2.58;90.94;95954.91;1716058;83;21028;-67
2022/12/06 00:51:22;;;;;;;8.70;5.30;;;;;;;2.55;90.90;95957.47;1716037;84;21498;-67
2022/12/06 00:53:50;;;;;;;7.27;4.70;;;;;;;2.58;91.30;95950.13;1716096;83;21047;-67
2022/12/06 00:56:18;;;;;;;8.60;5.47;;;;;;;2.60;91.33;95948.44;1716216;84;21034;-66
2022/12/06 00:58:45;;;;;;;7.33;5.20;;;;;;;2.64;91.52;95948.92;1716057;84;21066;-67
2022/12/06 01:01:16;;;;;;;10.47;5.53;;;;;;;2.69;91.49;95942.50;1716134;83;21034;-67
2022/12/06 01:03:44;;;;;;;6.33;4.10;;;;;;;2.73;91.57;95938.67;1714916;84;21035;-66
2022/12/06 01:06:14;;;;;;;6.73;4.20;;;;;;;2.75;91.31;95934.38;1716037;83;21063;-66
2022/12/06 01:08:42;;;;;;;8.10;5.40;;;;;;;2.77;91.42;95931.77;1716150;84;21126;-67
2022/12/06 01:11:12;;;;;;;9.63;5.60;;;;;;;2.78;91.46;95926.60;1688232;84;20975;-67
2022/12/06 01:13:39;;;;;;;14.30;9.23;;;;;;;2.77;91.24;95920.05;1716374;84;21034;-66
2022/12/06 01:16:14;;;;;;;10.63;6.70;;;;;;;2.81;91.96;95920.12;1715992;83;21113;-67
2022/12/06 01:18:43;;;;;;;19.83;10.27;;;;;;;2.93;92.74;95915.55;1714872;84;21038;-67
2022/12/06 01:21:17;;;;;;;10.57;5.93;;;;;;;3.00;92.53;95919.15;1716126;83;20991;-67
2022/12/06 01:23:44;;;;;;;12.73;6.73;;;;;;;3.04;92.05;95926.14;1716253;83;21023;-67
2022/12/06 01:26:26;;;;;;;11.53;6.10;;;;;;;3.09;92.27;95925.78;1715782;83;21058;-67
2022/12/06 01:28:53;;;;;;;11.33;6.37;;;;;;;2.97;91.02;95919.98;1716158;84;21022;-67
2022/12/06 01:31:21;;;;;;;14.23;6.23;;;;;;;2.90;91.02;95923.73;1716183;83;21031;-67
2022/12/06 01:33:48;;;;;;;11.83;6.47;;;;;;;2.84;90.85;95917.13;1715956;84;21070;-67
2022/12/06 01:36:22;;;;;;;9.43;6.00;;;;;;;2.76;90.94;95917.01;1716126;83;21026;-66
2022/12/06 01:38:55;;;;;;;12.03;6.53;;;;;;;2.70;91.04;95915.61;1715726;84;20982;-67
2022/12/06 01:41:25;;;;;;;11.60;5.92;;;;;;;2.65;91.22;95917.27;1716268;84;21094;-67
2022/12/06 01:43:54;;;;;;;16.60;8.80;;;;;;;2.65;91.41;95916.83;1718652;83;21160;-67
2022/12/06 01:46:41;;;;;;;10.87;6.63;;;;;;;2.64;91.56;95915.48;1723827;83;21445;-67
2022/12/06 01:49:15;;;;;;;11.73;6.20;;;;;;;2.65;91.49;95907.72;1723984;83;21033;-67
2022/12/06 01:51:47;;;;;;;15.47;9.13;;;;;;;2.68;91.50;95901.25;1723797;83;21034;-67
2022/12/06 01:54:16;;;;;;;18.17;10.47;;;;;;;2.66;91.43;95902.08;1723702;83;20999;-67
2022/12/06 01:56:44;;;;;;;14.30;9.10;;;;;;;2.68;91.66;95902.55;1723803;83;21025;-67
2022/12/06 01:59:11;;;;;;;16.40;10.23;;;;;;;2.68;91.76;95900.37;1697286;83;21007;-67
2022/12/06 02:01:39;;;;;;;16.57;10.20;;;;;;;2.67;91.64;95891.69;1723674;83;21007;-67
2022/12/06 02:04:08;;;;;;;16.03;10.30;;;;;;;2.71;91.83;95890.87;1723750;83;21058;-67
2022/12/06 02:06:34;;;;;;;14.47;9.10;;;;;;;2.79;92.05;95885.78;1723489;83;21035;-67
2022/12/06 02:09:05;;;;;;;17.23;11.00;;;;;;;2.80;91.91;95883.21;1723878;83;21022;-67
2022/12/06 02:11:32;;;;;;;16.03;11.57;;;;;;;2.80;91.98;95883.21;1723811;83;21018;-67
2022/12/06 02:14:00;;;;;;;15.53;10.00;;;;;;;2.79;91.98;95885.78;1723919;83;21030;-67
2022/12/06 02:16:44;;;;;;;17.47;12.10;;;;;;;2.82;92.19;95879.30;1723779;83;21018;-67
2022/12/06 02:19:22;;;;;;;18.37;12.27;;;;;;;2.85;92.07;95875.88;1723404;83;21022;-67
2022/12/06 02:22:03;;;;;;;11.67;8.33;;;;;;;2.89;92.10;95874.64;1723891;83;21493;-66
2022/12/06 02:25:09;;;;;;;14.50;9.80;;;;;;;2.91;91.93;95878.16;1723357;83;21512;-67
2022/12/06 02:27:59;;;;;;;14.83;11.17;;;;;;;3.02;92.74;95869.19;1723456;83;21038;-67
2022/12/06 02:31:06;;;;;;;16.37;11.23;;;;;;;3.17;92.91;95865.94;1723858;83;20991;-67
2022/12/06 02:33:53;;;;;;;17.10;10.63;;;;;;;3.34;93.19;95857.92;1723528;83;21528;-67
2022/12/06 02:36:30;;;;;;;11.63;8.03;;;;;;;3.41;92.27;95857.59;1723491;83;21030;-67
2022/12/06 02:39:08;;;;;;;9.63;6.90;;;;;;;3.28;91.08;95852.64;1722809;83;21034;-67
2022/12/06 02:41:47;;;;;;;12.73;8.50;;;;;;;3.23;91.40;95853.88;1723615;83;21010;-67
2022/12/06 02:44:21;;;;;;;13.17;9.37;;;;;;;3.13;91.01;95849.81;1723602;83;21033;-66
2022/12/06 02:46:51;;;;;;;11.63;8.47;;;;;;;3.12;91.75;95835.01;1693593;83;21515;-67
2022/12/06 02:49:19;;;;;;;9.43;6.87;;;;;;;3.16;92.04;95835.52;1723769;83;21022;-67
2022/12/06 02:51:48;;;;;;;8.47;6.43;;;;;;;3.08;91.34;95843.23;1723801;83;21057;-67
2022/12/06 02:54:17;;;;;;;9.23;7.47;;;;;;;2.97;91.06;95847.39;1724244;83;20995;-67
2022/12/06 02:56:43;;;;;;;8.97;7.10;;;;;;;2.90;91.27;95841.23;1723630;83;20987;-67
2022/12/06 02:59:10;;;;;;;10.27;7.57;;;;;;;2.83;91.26;95843.73;1723467;83;21038;-67
2022/12/06 03:01:42;;;;;;;11.80;8.30;;;;;;;2.81;91.70;95840.65;1724040;83;20990;-67
2022/12/06 03:04:33;;;;;;;16.23;10.50;;;;;;;2.81;91.82;95846.30;1723504;83;21535;-67
2022/12/06 03:07:26;;;;;;;16.93;11.43;;;;;;;2.80;91.89;95840.22;1723852;83;21023;-67
2022/12/06 03:10:28;;;;;;;13.73;9.63;;;;;;;2.73;91.57;95834.45;1723892;83;21074;-67
2022/12/06 03:13:25;;;;;;;14.03;9.77;;;;;;;2.73;91.57;95834.45;1723642;83;21521;-67
2022/12/06 03:16:08;;;;;;;14.10;10.00;;;;;;;2.64;91.50;95831.69;1723853;83;21038;-66
2022/12/06 03:18:40;;;;;;;14.18;9.55;;;;;;;2.62;91.39;95828.62;1723581;83;21038;-67
2022/12/06 03:21:21;;;;;;;12.33;8.80;;;;;;;2.57;91.25;95822.02;1723811;83;21089;-67
2022/12/06 03:23:50;;;;;;;13.90;8.70;;;;;;;2.62;91.64;95826.02;1723676;83;20990;-67
2022/12/06 03:26:22;;;;;;;12.60;8.53;;;;;;;2.63;91.43;95827.78;1723846;83;21495;-67
2022/12/06 03:28:53;;;;;;;12.30;8.97;;;;;;;2.67;91.60;95823.95;1723762;83;21527;-67
2022/12/06 03:31:21;;;;;;;15.23;9.90;;;;;;;2.70;91.64;95824.42;1723726;83;20987;-67
2022/12/06 03:33:56;;;;;;;14.60;10.00;;;;;;;2.76;92.21;95823.20;1723589;83;21046;-67
2022/12/06 03:36:25;;;;;;;13.70;9.30;;;;;;;2.85;92.71;95818.54;1723444;83;21061;-67
2022/12/06 03:39:00;;;;;;;14.87;9.80;;;;;;;2.90;92.46;95814.27;1723498;83;21097;-67
2022/12/06 03:41:35;;;;;;;17.70;10.93;;;;;;;2.91;92.37;95809.09;1723433;83;21029;-67
2022/12/06 03:44:02;;;;;;;30.50;15.90;;;;;;;2.89;92.05;95804.28;1721779;83;20999;-67
2022/12/06 03:46:33;;;;;;;24.77;14.10;;;;;;;2.83;91.95;95802.91;1716123;83;21026;-67
2022/12/06 03:49:17;;;;;;;28.40;10.90;;;;;;;2.72;91.96;95803.16;1716105;83;21069;-67
2022/12/06 03:51:45;;;;;;;21.10;10.53;;;;;;;2.63;92.32;95790.88;1717090;83;21520;-67
2022/12/06 03:54:12;;;;;;;18.57;11.40;;;;;;;2.65;92.68;95794.82;1716328;83;20967;-66
2022/12/06 03:56:38;;;;;;;22.47;11.77;;;;;;;2.73;92.85;95793.20;1716282;83;20979;-66
2022/12/06 03:59:07;;;;;;;30.43;16.60;;;;;;;2.69;92.83;95792.69;1716196;83;21003;-67
2022/12/06 04:01:34;;;;;;;42.80;24.30;;;;;;;2.68;92.66;95789.22;1716289;83;21030;-66
2022/12/06 04:04:01;;;;;;;38.30;23.00;;;;;;;2.76;92.91;95789.33;1716244;83;21026;-67
2022/12/06 04:06:28;;;;;;;31.37;17.70;;;;;;;2.78;92.79;95786.33;1716307;83;20995;-67
2022/12/06 04:09:51;;;;;;;23.90;14.30;;;;;;;2.86;92.93;95783.83;1716279;84;21525;-67
2022/12/06 04:11:26;;;;;;;24.13;14.03;;;;;;;2.97;93.30;95775.72;1715645;83;21078;-67
2022/12/06 04:13:53;;;;;;;18.77;11.57;;;;;;;2.99;92.54;95778.79;1716246;83;21082;-67
2022/12/06 04:19:05;;;;;;;20.67;12.07;;;;;;;2.95;91.93;95779.63;1715866;83;21002;-67
2022/12/06 04:23:58;;;;;;;17.80;11.40;;;;;;;2.85;91.86;95777.75;1716575;83;20994;-67
2022/12/06 04:26:26;;;;;;;16.13;9.97;;;;;;;2.85;91.91;95780.35;1716344;83;20998;-67
2022/12/06 04:39:55;;;;;;;104.53;57.20;;;;;;;2.93;92.40;95782.62;1715926;84;21038;-66
2022/12/06 04:45:09;;;;;;;36.10;20.73;;;;;;;2.98;92.80;95774.88;1715960;83;21094;-66
2022/12/06 04:47:35;;;;;;;33.83;19.97;;;;;;;2.93;92.33;95770.91;1716158;84;21015;-67
2022/12/06 04:50:03;;;;;;;38.57;20.40;;;;;;;2.90;92.54;95769.56;1715956;84;21014;-66
2022/12/06 04:52:29;;;;;;;56.47;27.17;;;;;;;2.90;92.48;95771.27;1711833;83;21011;-66
2022/12/06 04:54:56;;;;;;;44.13;23.63;;;;;;;2.77;92.27;95772.42;1716162;83;21528;-67
2022/12/06 04:57:23;;;;;;;39.73;22.10;;;;;;;2.69;92.42;95766.64;1715944;83;21102;-67
2022/12/06 04:59:50;;;;;;;33.43;20.13;;;;;;;2.66;92.57;95768.77;1716302;83;20983;-67
2022/12/06 05:02:16;;;;;;;36.93;19.43;;;;;;;2.66;92.54;95769.20;1716005;83;21250;-66
2022/12/06 05:04:43;;;;;;;21.77;13.03;;;;;;;2.67;92.62;95768.34;1716022;83;20991;-67
2022/12/06 05:07:10;;;;;;;22.13;13.43;;;;;;;2.69;92.53;95765.34;1716227;83;21014;-67
2022/12/06 05:09:37;;;;;;;32.07;20.20;;;;;;;2.66;92.62;95759.66;1716122;83;21031;-66
2022/12/06 05:12:05;;;;;;;33.27;18.73;;;;;;;2.61;92.79;95762.63;1716240;83;21086;-67
2022/12/06 05:14:31;;;;;;;21.00;13.43;;;;;;;2.60;92.87;95764.79;1716234;83;21049;-67
2022/12/06 05:16:58;;;;;;;20.97;12.20;;;;;;;2.62;93.44;95767.40;1716185;83;20999;-67
2022/12/06 05:19:26;;;;;;;26.87;15.97;;;;;;;2.65;93.30;95763.56;1715796;83;21111;-67
2022/12/06 05:21:52;;;;;;;21.70;13.30;;;;;;;2.68;93.32;95772.72;1716243;83;20995;-67
2022/12/06 05:24:19;;;;;;;21.23;12.50;;;;;;;2.71;93.02;95764.50;1715805;83;20983;-66
2022/12/06 05:26:45;;;;;;;30.93;18.13;;;;;;;2.76;92.97;95761.97;1716439;83;21035;-66
2022/12/06 05:29:12;;;;;;;35.43;21.87;;;;;;;2.79;93.33;95763.31;1716208;84;21500;-66
2022/12/06 05:31:38;;;;;;;42.50;23.03;;;;;;;2.77;92.98;95765.02;1716002;83;21027;-66
2022/12/06 05:34:05;;;;;;;31.60;18.40;;;;;;;2.82;93.43;95759.44;1716060;83;21010;-66
2022/12/06 05:36:32;;;;;;;32.37;18.93;;;;;;;2.90;93.64;95747.81;1716335;83;20991;-67
2022/12/06 05:38:59;;;;;;;27.67;16.60;;;;;;;3.01;94.01;95744.94;1715800;83;21094;-67
2022/12/06 05:41:25;;;;;;;24.37;15.63;;;;;;;3.15;94.07;95751.61;1716315;83;21497;-67
2022/12/06 05:43:52;;;;;;;21.33;14.97;;;;;;;3.18;93.37;95747.77;1716331;83;21201;-67
2022/12/06 05:46:18;;;;;;;28.37;17.77;;;;;;;3.20;92.96;95748.63;1718543;83;21053;-67
2022/12/06 05:48:45;;;;;;;32.50;20.70;;;;;;;3.21;92.68;95746.06;1718867;83;21094;-67
2022/12/06 05:51:12;;;;;;;39.87;23.07;;;;;;;3.20;92.27;95753.84;1718757;83;21050;-67
2022/12/06 05:53:40;;;;;;;35.20;21.93;;;;;;;3.19;92.33;95748.20;1718992;83;21039;-67
2022/12/06 05:56:10;;;;;;;38.07;23.53;;;;;;;3.23;92.51;95740.44;1718332;83;21077;-68
2022/12/06 05:58:37;;;;;;;37.33;22.53;;;;;;;3.31;92.61;95736.62;1719251;83;21449;-69
2022/12/06 06:01:06;;;;;;;39.20;26.40;;;;;;;3.28;92.13;95737.02;1718545;83;21157;-69
2022/12/06 06:03:33;;;;;;;40.47;25.33;;;;;;;3.21;91.73;95735.63;1718923;83;21006;-69
2022/12/06 06:06:01;;;;;;;30.07;18.60;;;;;;;3.13;91.75;95739.02;1718040;83;21050;-73
2022/12/06 06:08:29;;;;;;;31.57;19.53;;;;;;;2.97;91.86;95738.82;1718842;83;21034;-78
2022/12/06 06:10:56;;;;;;;31.30;18.13;;;;;;;2.92;91.98;95739.59;1717868;83;21088;-71
2022/12/06 06:13:23;;;;;;;27.23;16.20;;;;;;;2.91;92.29;95744.38;1718299;83;21050;-68
2022/12/06 06:15:50;;;;;;;23.47;13.90;;;;;;;2.86;92.48;95736.48;1718379;83;21615;-68
2022/12/06 06:18:18;;;;;;;20.17;12.30;;;;;;;2.83;92.34;95736.89;1718815;83;21006;-70
2022/12/06 06:20:51;;;;;;;20.83;10.97;;;;;;;2.77;92.38;95737.25;1718562;83;21129;-73
2022/12/06 06:23:19;;;;;;;20.40;12.55;;;;;;;2.75;92.30;95732.44;1718693;83;21584;-67
2022/12/06 06:25:46;;;;;;;17.57;11.40;;;;;;;2.74;92.54;95729.80;1718659;83;21091;-72
2022/12/06 06:28:13;;;;;;;31.57;19.37;;;;;;;2.66;92.91;95739.25;1718641;83;21013;-74
2022/12/06 06:30:41;;;;;;;27.80;16.33;;;;;;;2.62;92.99;95737.44;1723599;83;21069;-75
2022/12/06 06:33:08;;;;;;;18.33;10.47;;;;;;;2.63;93.03;95733.56;1723383;83;21156;-75
2022/12/06 06:35:35;;;;;;;21.83;13.67;;;;;;;2.67;92.80;95739.68;1713663;83;21052;-71
2022/12/06 06:38:02;;;;;;;17.03;9.77;;;;;;;2.74;93.00;95745.44;1705887;84;21013;-72
2022/12/06 06:40:30;;;;;;;34.53;20.40;;;;;;;2.79;92.78;95739.86;1706217;84;21140;-71
2022/12/06 06:42:56;;;;;;;25.00;16.07;;;;;;;2.78;92.85;95732.48;1705933;84;21088;-74
2022/12/06 06:45:24;;;;;;;19.20;12.77;;;;;;;2.84;93.27;95733.41;1697140;84;21016;-74
2022/12/06 06:47:51;;;;;;;20.90;13.67;;;;;;;2.90;93.18;95734.78;1703886;84;20987;-72
2022/12/06 06:50:18;;;;;;;21.10;12.80;;;;;;;2.94;93.25;95726.16;1703771;84;21503;-69
2022/12/06 06:52:44;;;;;;;24.67;15.63;;;;;;;2.97;93.22;95725.79;1704221;84;21524;-70
2022/12/06 06:55:11;;;;;;;21.27;14.37;;;;;;;3.07;93.35;95724.58;1704083;84;21544;-73
2022/12/06 06:57:40;;;;;;;18.43;11.50;;;;;;;3.12;93.40;95725.08;1703789;84;21117;-74
2022/12/06 07:00:08;;;;;;;24.23;13.83;;;;;;;3.19;93.23;95717.78;1704097;84;21054;-78
2022/12/06 07:02:38;;;;;;;24.77;14.80;;;;;;;3.22;92.83;95716.94;1704214;84;21487;-70
2022/12/06 07:05:04;;;;;;;34.57;19.60;;;;;;;3.23;92.38;95718.71;1704051;84;21046;-73
2022/12/06 07:07:31;;;;;;;25.10;13.87;;;;;;;3.24;92.27;95715.23;1704501;84;21089;-72
2022/12/06 07:09:57;;;;;;;26.53;14.93;;;;;;;3.20;92.03;95711.73;1704101;84;21089;-72
2022/12/06 07:12:24;;;;;;;22.63;12.70;;;;;;;3.23;92.26;95712.19;1704403;84;21045;-73
2022/12/06 07:14:51;;;;;;;45.00;25.47;;;;;;;3.28;92.27;95701.82;1704167;84;21044;-71
2022/12/06 07:17:17;;;;;;;463.47;192.00;;;;;;;3.38;92.97;95691.94;1703988;84;21140;-80
2022/12/06 07:19:44;;;;;;;81.43;40.90;;;;;;;3.46;92.47;95699.40;1704600;84;21043;-71
2022/12/06 07:22:11;;;;;;;23.07;14.17;;;;;;;3.43;91.83;95692.42;1704397;84;21491;-73
2022/12/06 07:24:37;;;;;;;73.33;54.33;;;;;;;3.41;92.18;95687.61;1704571;84;21038;-76
2022/12/06 07:27:04;;;;;;;24.23;17.03;;;;;;;3.38;91.89;95688.89;1704416;84;21081;-75
2022/12/06 07:29:30;;;;;;;18.10;12.13;;;;;;;3.36;92.08;95681.91;1703827;84;21478;-76
2022/12/06 07:31:58;;;;;;;30.63;20.90;;;;;;;3.35;92.33;95677.13;1704293;84;21092;-75
2022/12/06 07:34:25;;;;;;;36.00;26.33;;;;;;;3.44;92.71;95679.80;1704490;84;21041;-71
2022/12/06 07:36:51;;;;;;;33.90;23.50;;;;;;;3.38;91.84;95677.59;1703590;84;21020;-70
2022/12/06 07:39:18;;;;;;;33.53;23.23;;;;;;;3.30;91.63;95668.78;1704443;84;21042;-72
2022/12/06 07:47:23;;;;;;;31.67;23.13;;;;;;;3.14;92.19;95667.75;1704350;84;21082;-68
2022/12/06 07:49:56;;;;;;;22.93;14.70;;;;;;;3.06;92.40;95667.67;1703963;84;21605;-68
2022/12/06 07:52:20;;;;;;;18.93;12.47;;;;;;;3.06;92.63;95670.70;1701475;83;21560;-68
2022/12/06 07:54:47;;;;;;;19.47;12.37;;;;;;;3.06;92.79;95670.70;1689348;84;21097;-70
2022/12/06 07:57:15;;;;;;;20.33;11.90;;;;;;;3.07;92.75;95667.23;1687249;85;21500;-74
2022/12/06 07:59:41;;;;;;;19.03;11.17;;;;;;;3.09;92.62;95675.52;1649047;86;21660;-70
2022/12/06 08:02:19;;;;;;;160.60;101.67;;;;;;;3.11;92.72;95670.33;1650656;87;21050;-72
2022/12/06 08:04:46;;;;;;;30.03;19.90;;;;;;;3.15;92.87;95674.70;1679051;85;21076;-75
2022/12/06 08:07:14;;;;;;;99.20;66.90;;;;;;;3.24;93.21;95669.59;1700479;84;21595;-71
2022/12/06 08:09:41;;;;;;;34.83;24.20;;;;;;;3.27;92.94;95669.63;1681975;82;21053;-72
2022/12/06 08:12:08;;;;;;;33.80;23.20;;;;;;;3.31;92.92;95664.91;1679116;85;21058;-73
2022/12/06 08:14:36;;;;;;;38.90;26.60;;;;;;;3.32;92.72;95667.94;1678523;85;21018;-72
2022/12/06 08:17:04;;;;;;;21.80;12.53;;;;;;;3.41;93.13;95662.83;1678880;85;21097;-69
2022/12/06 08:19:31;;;;;;;19.27;11.20;;;;;;;3.53;93.32;95650.75;1679003;85;21017;-69
2022/12/06 08:21:58;;;;;;;19.20;11.43;;;;;;;3.63;93.29;95648.27;1679358;85;21085;-68
2022/12/06 08:24:25;;;;;;;19.00;12.73;;;;;;;3.72;93.05;95650.06;1698984;84;21022;-72
2022/12/06 08:26:52;;;;;;;19.47;13.37;;;;;;;3.83;93.22;95652.76;1697143;84;21066;-67
2022/12/06 08:29:19;;;;;;;15.77;9.67;;;;;;;3.93;92.98;95655.02;1679662;85;21068;-67
2022/12/06 08:31:46;;;;;;;15.73;10.67;;;;;;;4.00;92.30;95648.55;1697345;84;21014;-67
2022/12/06 08:34:15;;;;;;;17.93;12.10;;;;;;;4.02;91.83;95636.83;1679391;85;21615;-69
2022/12/06 08:36:42;;;;;;;19.20;11.80;;;;;;;4.00;91.34;95640.72;1697412;84;21002;-67
2022/12/06 08:39:11;;;;;;;22.80;13.27;;;;;;;3.96;91.33;95633.75;1679724;85;21569;-68
2022/12/06 08:41:57;;;;;;;19.47;10.70;;;;;;;4.06;91.92;95641.22;1697363;84;22120;-67
2022/12/06 08:44:26;;;;;;;17.80;11.10;;;;;;;4.11;92.05;95629.07;1679541;85;21504;-69
2022/12/06 08:46:54;;;;;;;19.30;11.53;;;;;;;4.12;91.23;95625.14;1715125;83;21551;-69
2022/12/06 08:49:23;;;;;;;16.70;10.90;;;;;;;4.10;91.00;95624.69;1721531;83;20986;-68
2022/12/06 08:51:50;;;;;;;19.63;11.77;;;;;;;4.14;91.30;95636.92;1721591;83;21058;-68
2022/12/06 08:54:21;;;;;;;21.93;13.20;;;;;;;4.17;91.20;95636.93;1721408;83;21003;-65
2022/12/06 08:56:48;;;;;;;22.40;13.63;;;;;;;4.16;90.94;95637.81;1721569;83;21162;-67
2022/12/06 08:59:16;;;;;;;20.73;12.37;;;;;;;4.19;91.46;95627.81;1721267;83;21547;-68
2022/12/06 09:01:44;;;;;;;19.97;12.73;;;;;;;4.18;91.13;95630.83;1721540;83;21009;-69
2022/12/06 09:04:12;;;;;;;66.27;52.90;;;;;;;4.18;91.26;95632.14;1721497;83;21064;-69
2022/12/06 09:06:40;;;;;;;53.53;39.00;;;;;;;4.15;91.06;95629.52;1721112;83;20990;-67
2022/12/06 09:09:09;;;;;;;49.63;37.60;;;;;;;4.13;90.87;95618.17;1721167;83;21010;-68
2022/12/06 09:11:38;;;;;;;65.53;48.07;;;;;;;4.14;91.08;95619.08;1721521;83;21053;-70
2022/12/06 09:14:06;;;;;;;37.30;13.77;;;;;;;4.11;90.92;95622.54;1717711;83;21054;-68
2022/12/06 09:16:32;;;;;;;27.43;14.77;;;;;;;4.01;90.44;95635.09;1712246;83;21061;-69
2022/12/06 09:18:59;;;;;;;34.13;24.23;;;;;;;3.97;90.75;95637.22;1715573;83;21070;-68
2022/12/06 09:21:29;;;;;;;30.07;20.50;;;;;;;3.93;90.93;95630.22;1713610;83;21000;-75
2022/12/06 09:23:57;;;;;;;26.27;17.90;;;;;;;3.94;91.09;95623.72;1715212;83;20974;-71
2022/12/06 09:26:25;;;;;;;23.90;13.20;;;;;;;3.92;91.02;95612.83;1663647;85;21504;-77
2022/12/06 09:28:54;;;;;;;21.40;13.40;;;;;;;3.91;91.20;95593.69;1714186;83;21062;-73
2022/12/06 09:31:22;;;;;;;23.10;13.23;;;;;;;3.93;91.25;95588.45;1698070;84;21097;-76
2022/12/06 09:33:49;;;;;;;23.93;15.13;;;;;;;3.95;91.23;95590.65;1703679;83;20998;-74
2022/12/06 09:36:21;;;;;;;22.30;13.70;;;;;;;3.89;91.18;95583.22;1716360;83;21458;-73
2022/12/06 09:38:55;;;;;;;24.67;13.87;;;;;;;3.86;91.20;95570.16;1712689;83;21007;-72
2022/12/06 09:41:56;;;;;;;28.93;16.10;;;;;;;3.85;91.20;95571.44;1709063;83;21073;-77
2022/12/06 09:44:58;;;;;;;36.60;21.90;;;;;;;3.83;91.45;95586.20;1719010;83;21074;-71
2022/12/06 09:48:14;;;;;;;47.87;27.93;;;;;;;3.81;91.35;95588.83;1713381;83;21011;-73
2022/12/06 09:51:01;;;;;;;30.93;18.03;;;;;;;3.84;91.85;95583.62;1706103;83;21006;-76
2022/12/06 09:53:54;;;;;;;23.67;13.30;;;;;;;3.95;92.24;95573.68;1711158;83;21035;-73
2022/12/06 09:56:29;;;;;;;25.27;14.75;;;;;;;4.07;92.49;95570.71;1707661;83;21569;-72
2022/12/06 09:59:29;;;;;;;24.93;14.00;;;;;;;4.15;91.90;95556.39;1706364;84;21541;-70
2022/12/06 10:02:20;;;;;;;24.07;14.00;;;;;;;4.21;92.17;95547.71;1706102;84;21047;-70
2022/12/06 10:05:01;;;;;;;23.93;15.10;;;;;;;4.29;92.15;95550.82;1669352;84;21059;-78
2022/12/06 10:07:54;;;;;;;21.33;11.80;;;;;;;4.38;91.98;95550.42;1705858;84;21020;-66
2022/12/06 10:10:29;;;;;;;20.45;12.47;;;;;;;4.44;91.44;95555.69;1654941;84;21525;-65
2022/12/06 10:13:37;;;;;;;22.13;13.63;;;;;;;4.51;91.63;95549.59;1705579;84;21039;-63
2022/12/06 10:16:32;;;;;;;35.00;18.27;;;;;;;4.52;90.86;95556.59;1705823;84;21027;-64
2022/12/06 10:19:20;;;;;;;27.40;17.87;;;;;;;4.51;90.54;95553.11;1705962;84;21036;-66
2022/12/06 10:22:11;;;;;;;30.83;21.60;;;;;;;4.54;90.66;95539.18;1683784;83;20996;-67
2022/12/06 10:25:19;;;;;;;26.23;14.50;;;;;;;4.62;91.27;95532.67;1692294;84;21006;-63
2022/12/06 10:28:08;;;;;;;54.40;35.67;;;;;;;4.64;90.31;95527.02;1641158;87;21052;-66
2022/12/06 10:30:50;;;;;;;21.67;12.80;;;;;;;4.76;91.25;95513.96;1627230;87;21038;-66
2022/12/06 10:33:48;;;;;;;21.83;12.40;;;;;;;4.80;90.37;95511.80;1701775;83;21071;-67
2022/12/06 10:36:20;;;;;;;21.13;12.33;;;;;;;4.75;89.45;95507.00;1702358;83;21315;-63
2022/12/06 10:39:01;;;;;;;22.50;12.97;;;;;;;4.71;90.02;95512.67;1706907;83;21526;-65
2022/12/06 10:41:36;;;;;;;28.17;15.03;;;;;;;4.71;90.16;95521.82;1673719;83;21477;-64
2022/12/06 10:44:08;;;;;;;24.03;13.33;;;;;;;4.67;89.65;95519.19;1705061;83;21074;-65
2022/12/06 10:47:05;;;;;;;30.13;17.70;;;;;;;4.68;90.17;95517.86;1706938;83;21046;-65
2022/12/06 10:49:49;;;;;;;39.13;23.23;;;;;;;4.65;89.88;95514.38;1639222;86;20990;-65
2022/12/06 10:52:27;;;;;;;41.30;27.43;;;;;;;4.63;90.18;95509.58;1694106;84;21082;-66
2022/12/06 10:55:11;;;;;;;24.03;13.77;;;;;;;4.56;89.65;95507.38;1695936;84;20984;-64
2022/12/06 10:58:14;;;;;;;77.37;44.43;;;;;;;4.52;89.75;95511.73;1692618;84;21148;-65
2022/12/06 11:00:57;;;;;;;30.60;18.20;;;;;;;4.49;89.90;95511.72;1694458;84;21018;-65
2022/12/06 11:03:40;;;;;;;30.20;15.55;;;;;;;4.41;89.88;95507.31;1704256;84;21564;-65
2022/12/06 11:06:33;;;;;;;38.02;19.98;;;;;;;4.23;90.62;95505.06;1704648;84;21028;-67
2022/12/06 11:09:26;;;;;;;26.63;14.67;;;;;;;4.27;90.47;95498.14;1703005;84;20954;-65
2022/12/06 11:11:54;;;;;;;34.75;18.00;;;;;;;4.24;91.12;95496.39;1702648;84;21107;-64
2022/12/06 11:14:34;;;;;;;37.03;20.87;;;;;;;4.19;91.02;95492.02;1708580;84;21033;-64
2022/12/06 11:17:21;;;;;;;27.20;17.90;;;;;;;4.25;91.31;95486.36;1708685;84;21052;-63
2022/12/06 11:19:53;;;;;;;23.50;13.33;;;;;;;4.30;91.46;95487.26;1645558;87;21074;-63
2022/12/06 11:22:38;;;;;;;26.00;14.80;;;;;;;4.40;91.60;95485.55;1700843;84;21089;-63
2022/12/06 11:25:33;;;;;;;28.53;15.53;;;;;;;4.46;91.35;95482.98;1703108;84;21097;-64
2022/12/06 11:28:23;;;;;;;83.40;63.17;;;;;;;4.50;90.85;95474.70;1715950;83;21026;-64
2022/12/06 11:30:53;;;;;;;26.20;13.50;;;;;;;4.62;91.54;95477.36;1715758;83;21006;-63
2022/12/06 11:33:30;;;;;;;35.40;22.73;;;;;;;4.66;91.11;95475.20;1715381;83;21516;-64
2022/12/06 11:36:04;;;;;;;32.53;21.90;;;;;;;4.65;90.95;95462.98;1715126;84;21023;-64
2022/12/06 11:38:34;;;;;;;27.90;18.07;;;;;;;4.68;91.06;95460.37;1715656;83;21022;-64
2022/12/06 11:41:04;;;;;;;22.77;13.10;;;;;;;4.79;91.42;95456.48;1715887;83;21541;-64
2022/12/06 11:43:34;;;;;;;31.87;18.17;;;;;;;4.87;91.13;95453.89;1715964;83;21007;-64
2022/12/06 11:46:04;;;;;;;29.33;15.47;;;;;;;4.90;90.52;95449.95;1716158;83;21066;-63
2022/12/06 11:48:34;;;;;;;21.80;12.90;;;;;;;4.92;90.47;95452.14;1718640;83;21054;-63
2022/12/06 11:51:01;;;;;;;21.77;13.30;;;;;;;4.97;90.61;95452.58;1718758;83;21568;-63
2022/12/06 11:53:48;;;;;;;24.93;14.60;;;;;;;4.98;90.03;95454.31;1718558;83;21105;-63
2022/12/06 11:56:25;;;;;;;24.90;12.97;;;;;;;5.06;90.04;95454.75;1718184;83;21081;-63
2022/12/06 11:59:16;;;;;;;24.33;13.80;;;;;;;5.13;90.35;95452.58;1692405;83;21520;-63
2022/12/06 12:01:51;;;;;;;22.50;13.10;;;;;;;5.08;89.63;95445.17;1718766;83;21580;-63
2022/12/06 12:04:37;;;;;;;25.93;14.70;;;;;;;5.09;89.89;95454.34;1718908;83;21368;-63
2022/12/06 12:07:18;;;;;;;26.27;16.43;;;;;;;5.10;89.99;95456.52;1718995;83;21054;-63
2022/12/06 12:09:53;;;;;;;24.93;13.50;;;;;;;5.14;90.17;95439.93;1718959;83;21102;-63
2022/12/06 12:13:42;;;;;;;24.30;17.57;;;;;;;5.08;89.08;95438.63;1718425;83;21508;-64
2022/12/06 12:14:58;;;;;;;30.33;18.90;;;;;;;4.94;88.63;95434.72;1713470;83;21026;-64
2022/12/06 12:17:29;;;;;;;24.53;15.07;;;;;;;4.83;88.79;95438.61;1719117;83;21034;-64